sensor_id;sensor_type;location;lat;lon;timestamp;P1;durP1;ratioP1;P2;durP2;ratioP2
42760;SDS011;31672;47.638;19.026;2022-09-19T00:03:50;1.03;;;0.30;;
42760;SDS011;31672;47.638;19.026;2022-09-19T00:08:58;1.87;;;0.50;;
42760;SDS011;31672;47.638;19.026;2022-09-19T00:14:01;0.47;;;0.30;;
42760;SDS011;31672;47.638;19.026;2022-09-19T00:19:04;0.77;;;0.30;;
42760;SDS011;31672;47.638;19.026;2022-09-19T00:24:12;0.17;;;0.10;;
42760;SDS011;31672;47.638;19.026;2022-09-19T00:29:38;0.43;;;0.17;;
42760;SDS011;31672;47.638;19.026;2022-09-19T00:34:47;0.10;;;0.10;;
42760;SDS011;31672;47.638;19.026;2022-09-19T00:39:51;0.77;;;0.30;;
42760;SDS011;31672;47.638;19.026;2022-09-19T00:44:56;0.50;;;0.10;;
42760;SDS011;31672;47.638;19.026;2022-09-19T00:50:05;0.57;;;0.20;;
42760;SDS011;31672;47.638;19.026;2022-09-19T00:55:14;0.37;;;0.13;;
42760;SDS011;31672;47.638;19.026;2022-09-19T01:00:18;0.43;;;0.10;;
42760;SDS011;31672;47.638;19.026;2022-09-19T01:05:25;0.30;;;0.13;;
42760;SDS011;31672;47.638;19.026;2022-09-19T01:10:57;1.50;;;0.20;;
42760;SDS011;31672;47.638;19.026;2022-09-19T01:16:29;0.20;;;0.10;;
42760;SDS011;31672;47.638;19.026;2022-09-19T01:21:49;0.40;;;0.10;;
42760;SDS011;31672;47.638;19.026;2022-09-19T01:38:29;0.20;;;0.10;;
42760;SDS011;31672;47.638;19.026;2022-09-19T01:43:37;0.73;;;0.20;;
42760;SDS011;31672;47.638;19.026;2022-09-19T01:54:09;0.10;;;0.10;;
42760;SDS011;31672;47.638;19.026;2022-09-19T02:10:35;0.20;;;0.10;;
42760;SDS011;31672;47.638;19.026;2022-09-19T02:15:44;0.30;;;0.30;;
42760;SDS011;31672;47.638;19.026;2022-09-19T02:20:54;0.23;;;0.10;;
42760;SDS011;31672;47.638;19.026;2022-09-19T02:26:06;0.37;;;0.20;;
42760;SDS011;31672;47.638;19.026;2022-09-19T02:31:11;0.23;;;0.17;;
42760;SDS011;31672;47.638;19.026;2022-09-19T02:36:16;0.30;;;0.20;;
42760;SDS011;31672;47.638;19.026;2022-09-19T02:41:40;0.40;;;0.10;;
42760;SDS011;31672;47.638;19.026;2022-09-19T02:46:56;0.20;;;0.10;;
42760;SDS011;31672;47.638;19.026;2022-09-19T02:52:27;0.20;;;0.20;;
42760;SDS011;31672;47.638;19.026;2022-09-19T02:57:35;0.30;;;0.17;;
42760;SDS011;31672;47.638;19.026;2022-09-19T03:02:40;0.53;;;0.20;;
42760;SDS011;31672;47.638;19.026;2022-09-19T03:07:52;0.37;;;0.20;;
42760;SDS011;31672;47.638;19.026;2022-09-19T03:18:14;0.23;;;0.20;;
42760;SDS011;31672;47.638;19.026;2022-09-19T03:23:21;0.87;;;0.33;;
42760;SDS011;31672;47.638;19.026;2022-09-19T03:28:47;0.40;;;0.30;;
42760;SDS011;31672;47.638;19.026;2022-09-19T03:33:50;0.30;;;0.20;;
42760;SDS011;31672;47.638;19.026;2022-09-19T03:38:56;0.40;;;0.27;;
42760;SDS011;31672;47.638;19.026;2022-09-19T03:44:04;0.40;;;0.10;;
42760;SDS011;31672;47.638;19.026;2022-09-19T03:49:07;0.77;;;0.40;;
42760;SDS011;31672;47.638;19.026;2022-09-19T03:54:13;0.67;;;0.30;;
42760;SDS011;31672;47.638;19.026;2022-09-19T03:59:16;0.47;;;0.23;;
42760;SDS011;31672;47.638;19.026;2022-09-19T04:04:19;0.63;;;0.50;;
42760;SDS011;31672;47.638;19.026;2022-09-19T04:09:23;0.27;;;0.20;;
42760;SDS011;31672;47.638;19.026;2022-09-19T04:14:27;0.30;;;0.30;;
42760;SDS011;31672;47.638;19.026;2022-09-19T04:19:32;1.23;;;0.53;;
42760;SDS011;31672;47.638;19.026;2022-09-19T04:24:35;1.63;;;0.43;;
42760;SDS011;31672;47.638;19.026;2022-09-19T04:29:41;0.60;;;0.30;;
42760;SDS011;31672;47.638;19.026;2022-09-19T04:34:43;1.00;;;0.20;;
42760;SDS011;31672;47.638;19.026;2022-09-19T04:39:49;0.20;;;0.20;;
42760;SDS011;31672;47.638;19.026;2022-09-19T04:44:52;0.50;;;0.20;;
42760;SDS011;31672;47.638;19.026;2022-09-19T04:49:55;0.47;;;0.27;;
42760;SDS011;31672;47.638;19.026;2022-09-19T04:55:02;0.63;;;0.40;;
42760;SDS011;31672;47.638;19.026;2022-09-19T05:00:05;2.03;;;0.50;;
42760;SDS011;31672;47.638;19.026;2022-09-19T05:05:09;1.90;;;0.70;;
42760;SDS011;31672;47.638;19.026;2022-09-19T05:10:12;0.63;;;0.40;;
42760;SDS011;31672;47.638;19.026;2022-09-19T05:15:15;1.50;;;0.53;;
42760;SDS011;31672;47.638;19.026;2022-09-19T05:20:18;1.33;;;0.60;;
42760;SDS011;31672;47.638;19.026;2022-09-19T05:25:22;1.37;;;0.50;;
42760;SDS011;31672;47.638;19.026;2022-09-19T05:30:25;1.60;;;0.57;;
42760;SDS011;31672;47.638;19.026;2022-09-19T05:35:28;1.77;;;0.63;;
42760;SDS011;31672;47.638;19.026;2022-09-19T05:40:32;0.47;;;0.40;;
42760;SDS011;31672;47.638;19.026;2022-09-19T05:45:36;0.30;;;0.20;;
42760;SDS011;31672;47.638;19.026;2022-09-19T05:50:42;10.03;;;0.50;;
42760;SDS011;31672;47.638;19.026;2022-09-19T05:55:46;1.00;;;0.40;;
42760;SDS011;31672;47.638;19.026;2022-09-19T06:00:49;0.40;;;0.33;;
42760;SDS011;31672;47.638;19.026;2022-09-19T06:05:52;1.47;;;0.50;;
42760;SDS011;31672;47.638;19.026;2022-09-19T06:10:59;0.67;;;0.20;;
42760;SDS011;31672;47.638;19.026;2022-09-19T06:16:02;0.10;;;0.10;;
42760;SDS011;31672;47.638;19.026;2022-09-19T06:21:05;0.60;;;0.30;;
42760;SDS011;31672;47.638;19.026;2022-09-19T06:26:08;1.33;;;0.40;;
42760;SDS011;31672;47.638;19.026;2022-09-19T06:31:14;0.60;;;0.30;;
42760;SDS011;31672;47.638;19.026;2022-09-19T06:36:17;0.30;;;0.20;;
42760;SDS011;31672;47.638;19.026;2022-09-19T06:41:20;0.53;;;0.30;;
42760;SDS011;31672;47.638;19.026;2022-09-19T06:46:23;0.10;;;0.10;;
42760;SDS011;31672;47.638;19.026;2022-09-19T06:51:26;0.57;;;0.27;;
42760;SDS011;31672;47.638;19.026;2022-09-19T06:56:31;0.27;;;0.10;;
42760;SDS011;31672;47.638;19.026;2022-09-19T07:01:34;2.33;;;0.30;;
42760;SDS011;31672;47.638;19.026;2022-09-19T07:06:37;0.63;;;0.10;;
42760;SDS011;31672;47.638;19.026;2022-09-19T07:11:45;1.47;;;0.27;;
42760;SDS011;31672;47.638;19.026;2022-09-19T07:16:54;0.70;;;0.27;;
42760;SDS011;31672;47.638;19.026;2022-09-19T07:21:58;0.30;;;0.10;;
42760;SDS011;31672;47.638;19.026;2022-09-19T07:27:01;0.50;;;0.20;;
42760;SDS011;31672;47.638;19.026;2022-09-19T07:32:04;0.40;;;0.27;;
42760;SDS011;31672;47.638;19.026;2022-09-19T07:37:07;0.50;;;0.40;;
42760;SDS011;31672;47.638;19.026;2022-09-19T07:42:10;0.50;;;0.37;;
42760;SDS011;31672;47.638;19.026;2022-09-19T07:47:13;0.33;;;0.33;;
42760;SDS011;31672;47.638;19.026;2022-09-19T07:52:31;0.57;;;0.33;;
42760;SDS011;31672;47.638;19.026;2022-09-19T07:57:34;0.20;;;0.20;;
42760;SDS011;31672;47.638;19.026;2022-09-19T08:02:37;1.33;;;0.60;;
42760;SDS011;31672;47.638;19.026;2022-09-19T08:07:39;0.70;;;0.50;;
42760;SDS011;31672;47.638;19.026;2022-09-19T08:12:42;2.53;;;1.20;;
42760;SDS011;31672;47.638;19.026;2022-09-19T08:18:00;0.20;;;0.20;;
42760;SDS011;31672;47.638;19.026;2022-09-19T08:23:06;1.93;;;0.40;;
42760;SDS011;31672;47.638;19.026;2022-09-19T08:28:15;2.77;;;0.90;;
42760;SDS011;31672;47.638;19.026;2022-09-19T08:33:20;0.00;;;0.00;;
42760;SDS011;31672;47.638;19.026;2022-09-19T08:38:22;6.90;;;2.60;;
42760;SDS011;31672;47.638;19.026;2022-09-19T08:48:33;0.70;;;0.10;;
42760;SDS011;31672;47.638;19.026;2022-09-19T08:54:05;0.10;;;0.03;;
42760;SDS011;31672;47.638;19.026;2022-09-19T08:59:17;0.00;;;0.00;;
42760;SDS011;31672;47.638;19.026;2022-09-19T09:04:27;0.10;;;0.10;;
42760;SDS011;31672;47.638;19.026;2022-09-19T09:15:13;0.30;;;0.10;;
42760;SDS011;31672;47.638;19.026;2022-09-19T09:21:15;1.02;;;0.13;;
42760;SDS011;31672;47.638;19.026;2022-09-19T09:26:41;0.17;;;0.00;;
42760;SDS011;31672;47.638;19.026;2022-09-19T09:31:49;1.00;;;0.23;;
42760;SDS011;31672;47.638;19.026;2022-09-19T09:42:22;0.10;;;0.00;;
42760;SDS011;31672;47.638;19.026;2022-09-19T09:48:12;0.10;;;0.10;;
42760;SDS011;31672;47.638;19.026;2022-09-19T10:04:45;0.40;;;0.17;;
42760;SDS011;31672;47.638;19.026;2022-09-19T10:09:32;0.07;;;0.07;;
42760;SDS011;31672;47.638;19.026;2022-09-19T10:14:39;0.03;;;0.00;;
42760;SDS011;31672;47.638;19.026;2022-09-19T10:19:47;0.10;;;0.00;;
42760;SDS011;31672;47.638;19.026;2022-09-19T10:24:59;0.20;;;0.10;;
42760;SDS011;31672;47.638;19.026;2022-09-19T10:46:06;0.33;;;0.10;;
42760;SDS011;31672;47.638;19.026;2022-09-19T10:51:17;0.28;;;0.20;;
42760;SDS011;31672;47.638;19.026;2022-09-19T11:01:30;3.00;;;0.20;;
42760;SDS011;31672;47.638;19.026;2022-09-19T11:06:33;0.00;;;0.00;;
42760;SDS011;31672;47.638;19.026;2022-09-19T11:11:45;0.10;;;0.10;;
42760;SDS011;31672;47.638;19.026;2022-09-19T11:16:56;0.10;;;0.10;;
42760;SDS011;31672;47.638;19.026;2022-09-19T11:33:53;0.27;;;0.20;;
42760;SDS011;31672;47.638;19.026;2022-09-19T11:50:20;1.70;;;0.10;;
42760;SDS011;31672;47.638;19.026;2022-09-19T12:11:50;0.73;;;0.40;;
42760;SDS011;31672;47.638;19.026;2022-09-19T12:17:01;0.10;;;0.10;;
42760;SDS011;31672;47.638;19.026;2022-09-19T12:22:30;3.22;;;1.13;;
42760;SDS011;31672;47.638;19.026;2022-09-19T12:27:46;0.87;;;0.10;;
42760;SDS011;31672;47.638;19.026;2022-09-19T12:33:03;0.10;;;0.10;;
42760;SDS011;31672;47.638;19.026;2022-09-19T12:50:00;0.40;;;0.10;;
42760;SDS011;31672;47.638;19.026;2022-09-19T12:55:24;0.10;;;0.00;;
42760;SDS011;31672;47.638;19.026;2022-09-19T13:00:40;0.20;;;0.10;;
42760;SDS011;31672;47.638;19.026;2022-09-19T13:05:52;0.30;;;0.10;;
42760;SDS011;31672;47.638;19.026;2022-09-19T13:16:43;0.17;;;0.08;;
42760;SDS011;31672;47.638;19.026;2022-09-19T13:22:05;0.33;;;0.10;;
42760;SDS011;31672;47.638;19.026;2022-09-19T13:27:22;0.83;;;0.50;;
42760;SDS011;31672;47.638;19.026;2022-09-19T13:37:55;0.40;;;0.20;;
42760;SDS011;31672;47.638;19.026;2022-09-19T13:43:20;2.80;;;1.10;;
42760;SDS011;31672;47.638;19.026;2022-09-19T14:04:50;0.27;;;0.20;;
42760;SDS011;31672;47.638;19.026;2022-09-19T14:10:01;1.07;;;0.57;;
42760;SDS011;31672;47.638;19.026;2022-09-19T14:20:47;0.67;;;0.33;;
42760;SDS011;31672;47.638;19.026;2022-09-19T14:31:23;3.37;;;2.00;;
42760;SDS011;31672;47.638;19.026;2022-09-19T14:52:49;0.70;;;0.47;;
42760;SDS011;31672;47.638;19.026;2022-09-19T14:58:04;1.33;;;0.83;;
42760;SDS011;31672;47.638;19.026;2022-09-19T15:03:24;3.87;;;0.80;;
42760;SDS011;31672;47.638;19.026;2022-09-19T15:08:28;1.97;;;1.17;;
42760;SDS011;31672;47.638;19.026;2022-09-19T15:13:33;1.77;;;0.87;;
42760;SDS011;31672;47.638;19.026;2022-09-19T15:23:44;0.80;;;0.40;;
42760;SDS011;31672;47.638;19.026;2022-09-19T15:29:16;1.13;;;0.43;;
42760;SDS011;31672;47.638;19.026;2022-09-19T15:34:38;0.70;;;0.30;;
42760;SDS011;31672;47.638;19.026;2022-09-19T15:39:43;1.13;;;0.40;;
42760;SDS011;31672;47.638;19.026;2022-09-19T15:44:46;0.40;;;0.30;;
42760;SDS011;31672;47.638;19.026;2022-09-19T15:49:51;2.20;;;0.83;;
42760;SDS011;31672;47.638;19.026;2022-09-19T15:55:02;2.23;;;1.30;;
42760;SDS011;31672;47.638;19.026;2022-09-19T16:00:28;3.23;;;1.67;;
42760;SDS011;31672;47.638;19.026;2022-09-19T16:05:33;2.47;;;1.50;;
42760;SDS011;31672;47.638;19.026;2022-09-19T16:10:39;1.67;;;0.90;;
42760;SDS011;31672;47.638;19.026;2022-09-19T16:15:55;0.70;;;0.43;;
42760;SDS011;31672;47.638;19.026;2022-09-19T16:20:59;1.03;;;0.33;;
42760;SDS011;31672;47.638;19.026;2022-09-19T16:26:08;1.17;;;0.60;;
42760;SDS011;31672;47.638;19.026;2022-09-19T16:31:27;2.17;;;1.00;;
42760;SDS011;31672;47.638;19.026;2022-09-19T16:36:42;1.43;;;0.70;;
42760;SDS011;31672;47.638;19.026;2022-09-19T16:47:00;1.40;;;0.70;;
42760;SDS011;31672;47.638;19.026;2022-09-19T16:52:15;1.30;;;0.70;;
42760;SDS011;31672;47.638;19.026;2022-09-19T16:57:23;1.43;;;0.50;;
42760;SDS011;31672;47.638;19.026;2022-09-19T17:02:30;1.23;;;0.50;;
42760;SDS011;31672;47.638;19.026;2022-09-19T17:07:34;0.83;;;0.47;;
42760;SDS011;31672;47.638;19.026;2022-09-19T17:12:37;0.87;;;0.37;;
42760;SDS011;31672;47.638;19.026;2022-09-19T17:17:40;1.30;;;0.53;;
42760;SDS011;31672;47.638;19.026;2022-09-19T17:22:49;1.07;;;0.60;;
42760;SDS011;31672;47.638;19.026;2022-09-19T17:27:53;1.30;;;0.50;;
42760;SDS011;31672;47.638;19.026;2022-09-19T17:32:56;1.77;;;0.70;;
42760;SDS011;31672;47.638;19.026;2022-09-19T17:38:05;1.07;;;0.60;;
42760;SDS011;31672;47.638;19.026;2022-09-19T17:43:09;1.67;;;0.80;;
42760;SDS011;31672;47.638;19.026;2022-09-19T17:48:18;1.43;;;0.70;;
42760;SDS011;31672;47.638;19.026;2022-09-19T17:53:21;1.37;;;0.53;;
42760;SDS011;31672;47.638;19.026;2022-09-19T17:58:24;0.90;;;0.60;;
42760;SDS011;31672;47.638;19.026;2022-09-19T18:03:27;1.27;;;0.70;;
42760;SDS011;31672;47.638;19.026;2022-09-19T18:08:32;1.77;;;0.90;;
42760;SDS011;31672;47.638;19.026;2022-09-19T18:13:35;0.70;;;0.57;;
42760;SDS011;31672;47.638;19.026;2022-09-19T18:18:38;0.80;;;0.40;;
42760;SDS011;31672;47.638;19.026;2022-09-19T18:23:43;0.83;;;0.50;;
42760;SDS011;31672;47.638;19.026;2022-09-19T18:28:51;1.67;;;0.80;;
42760;SDS011;31672;47.638;19.026;2022-09-19T18:33:57;1.90;;;0.70;;
42760;SDS011;31672;47.638;19.026;2022-09-19T18:39:02;0.80;;;0.50;;
42760;SDS011;31672;47.638;19.026;2022-09-19T18:44:06;1.23;;;0.67;;
42760;SDS011;31672;47.638;19.026;2022-09-19T18:49:09;1.60;;;0.77;;
42760;SDS011;31672;47.638;19.026;2022-09-19T18:54:12;0.73;;;0.50;;
42760;SDS011;31672;47.638;19.026;2022-09-19T18:59:21;1.07;;;0.57;;
42760;SDS011;31672;47.638;19.026;2022-09-19T19:04:25;1.47;;;0.80;;
42760;SDS011;31672;47.638;19.026;2022-09-19T19:09:28;1.33;;;1.00;;
42760;SDS011;31672;47.638;19.026;2022-09-19T19:14:31;2.43;;;1.20;;
42760;SDS011;31672;47.638;19.026;2022-09-19T19:19:34;1.87;;;1.43;;
42760;SDS011;31672;47.638;19.026;2022-09-19T19:24:37;1.87;;;1.37;;
42760;SDS011;31672;47.638;19.026;2022-09-19T19:29:39;1.73;;;1.13;;
42760;SDS011;31672;47.638;19.026;2022-09-19T19:34:42;2.97;;;1.50;;
42760;SDS011;31672;47.638;19.026;2022-09-19T19:39:45;1.53;;;1.07;;
42760;SDS011;31672;47.638;19.026;2022-09-19T19:44:48;1.67;;;0.93;;
42760;SDS011;31672;47.638;19.026;2022-09-19T19:49:50;1.67;;;1.13;;
42760;SDS011;31672;47.638;19.026;2022-09-19T19:54:55;1.30;;;1.00;;
42760;SDS011;31672;47.638;19.026;2022-09-19T19:59:57;1.30;;;0.80;;
42760;SDS011;31672;47.638;19.026;2022-09-19T20:05:00;1.87;;;0.93;;
42760;SDS011;31672;47.638;19.026;2022-09-19T20:10:06;2.20;;;1.07;;
42760;SDS011;31672;47.638;19.026;2022-09-19T20:15:10;2.33;;;1.57;;
42760;SDS011;31672;47.638;19.026;2022-09-19T20:20:13;2.33;;;1.30;;
42760;SDS011;31672;47.638;19.026;2022-09-19T20:25:16;1.80;;;0.80;;
42760;SDS011;31672;47.638;19.026;2022-09-19T20:30:22;2.73;;;0.70;;
42760;SDS011;31672;47.638;19.026;2022-09-19T20:35:24;1.50;;;0.80;;
42760;SDS011;31672;47.638;19.026;2022-09-19T20:40:27;1.13;;;0.80;;
42760;SDS011;31672;47.638;19.026;2022-09-19T20:45:31;1.50;;;0.60;;
42760;SDS011;31672;47.638;19.026;2022-09-19T20:50:35;1.27;;;0.90;;
42760;SDS011;31672;47.638;19.026;2022-09-19T20:55:38;0.97;;;0.60;;
42760;SDS011;31672;47.638;19.026;2022-09-19T21:00:41;0.50;;;0.40;;
42760;SDS011;31672;47.638;19.026;2022-09-19T21:05:53;0.53;;;0.30;;
42760;SDS011;31672;47.638;19.026;2022-09-19T21:10:58;1.10;;;0.50;;
42760;SDS011;31672;47.638;19.026;2022-09-19T21:16:04;0.67;;;0.50;;
42760;SDS011;31672;47.638;19.026;2022-09-19T21:21:21;1.00;;;0.50;;
42760;SDS011;31672;47.638;19.026;2022-09-19T21:26:28;0.70;;;0.60;;
42760;SDS011;31672;47.638;19.026;2022-09-19T21:31:33;0.77;;;0.50;;
42760;SDS011;31672;47.638;19.026;2022-09-19T21:36:37;0.67;;;0.53;;
42760;SDS011;31672;47.638;19.026;2022-09-19T21:41:40;1.87;;;0.70;;
42760;SDS011;31672;47.638;19.026;2022-09-19T21:46:43;0.63;;;0.43;;
42760;SDS011;31672;47.638;19.026;2022-09-19T21:51:46;0.30;;;0.30;;
42760;SDS011;31672;47.638;19.026;2022-09-19T21:56:48;0.40;;;0.20;;
42760;SDS011;31672;47.638;19.026;2022-09-19T22:01:51;0.70;;;0.40;;
42760;SDS011;31672;47.638;19.026;2022-09-19T22:06:54;0.43;;;0.30;;
42760;SDS011;31672;47.638;19.026;2022-09-19T22:11:57;0.50;;;0.20;;
42760;SDS011;31672;47.638;19.026;2022-09-19T22:17:00;0.47;;;0.20;;
42760;SDS011;31672;47.638;19.026;2022-09-19T22:22:03;0.83;;;0.40;;
42760;SDS011;31672;47.638;19.026;2022-09-19T22:27:06;0.70;;;0.40;;
42760;SDS011;31672;47.638;19.026;2022-09-19T22:32:09;0.67;;;0.50;;
42760;SDS011;31672;47.638;19.026;2022-09-19T22:37:12;1.10;;;0.97;;
42760;SDS011;31672;47.638;19.026;2022-09-19T22:42:15;2.17;;;1.23;;
42760;SDS011;31672;47.638;19.026;2022-09-19T22:47:18;2.00;;;1.60;;
42760;SDS011;31672;47.638;19.026;2022-09-19T22:52:21;2.80;;;2.53;;
42760;SDS011;31672;47.638;19.026;2022-09-19T22:57:24;4.03;;;3.23;;
42760;SDS011;31672;47.638;19.026;2022-09-19T23:02:27;3.40;;;2.50;;
42760;SDS011;31672;47.638;19.026;2022-09-19T23:07:30;3.13;;;2.43;;
42760;SDS011;31672;47.638;19.026;2022-09-19T23:12:33;2.53;;;2.30;;
42760;SDS011;31672;47.638;19.026;2022-09-19T23:17:36;2.80;;;2.10;;
42760;SDS011;31672;47.638;19.026;2022-09-19T23:22:38;2.13;;;1.77;;
42760;SDS011;31672;47.638;19.026;2022-09-19T23:27:41;2.20;;;1.70;;
42760;SDS011;31672;47.638;19.026;2022-09-19T23:32:44;1.60;;;1.40;;
42760;SDS011;31672;47.638;19.026;2022-09-19T23:37:47;2.17;;;1.37;;
42760;SDS011;31672;47.638;19.026;2022-09-19T23:42:50;1.60;;;1.23;;
42760;SDS011;31672;47.638;19.026;2022-09-19T23:47:52;2.47;;;0.97;;
42760;SDS011;31672;47.638;19.026;2022-09-19T23:52:55;1.40;;;0.90;;
42760;SDS011;31672;47.638;19.026;2022-09-19T23:57:58;1.03;;;0.80;;
